Terminal Aerodrome Forecast
Issued by NWS

Home | Current Version | Previous Version | Text Only | Print | Product List | Glossary Off
Versions: 1 2 3 4 5 6 7 8 9 10 11 12 13 14 15 16 17

810
FTUS43 KMPX 242333
TAFAXN
TAF
KAXN 242333Z 2500/2524 22010KT P6SM VCTS SCT080CB
     FM250200 22008KT P6SM FEW080
     FM251700 28013G20KT P6SM FEW070=

USA.gov is the U.S. government's official web portal to all federal, state and local government web resources and services.